Flight Track Log - Related Links

Times and Time Zones

All times are in EDT time to prevent confusion due to time zone crossing. See the LXJ342 flight status page for this flight to view local times or setup timezone preferences in your user account.

Time Position Orientation Groundspeed Altitude Reporting Facility
EDT Latitude Longitude Course Direction KTS MPH feet Rate Location/Type
Thu 05:19:05 PM 41.4858 -70.5142 287° West 268 308 5,100  Level Boston Center
Thu 05:20:06 PM 41.5453 -70.4653 32° Northeast 263 303 8,400 3,681 Climbing Boston Center
Thu 05:21:04 PM 41.6089 -70.4078 34° Northeast 263 303 12,400 3,933 Climbing Boston Center
Thu 05:22:05 PM 41.6767 -70.3472 34° Northeast 274 315 16,200 3,223 Climbing Boston Center
Thu 05:23:00 PM 41.9676 -70.0726 31° Northeast  Level FlightAware Approximate
Thu 05:23:05 PM 41.7556 -70.3278 10° North 281 323 18,900  Level Boston Center
Thu 05:24:00 PM 42.0343 -70.1125 287° West  Level FlightAware Approximate
Thu 05:24:03 PM 41.8175 -70.4178 313° West 259 298 21,000  Level Boston Center
Thu 05:25:04 PM 41.8406 -70.5481 283° West 290 334 23,200 2,311 Climbing Boston Center
Thu 05:26:05 PM 41.8636 -70.6783 283° West 335 386 25,700 2,231 Climbing Boston Center
Thu 05:27:05 PM 41.8886 -70.8114 284° West 346 398 27,700 1,934 Climbing Boston Center
Thu 05:28:06 PM 41.9156 -70.9531 284° West 370 426 29,600 1,686 Climbing Boston Center
Thu 05:29:06 PM 41.9403 -71.0947 283° West 388 447 31,100 1,373 Climbing Boston Center
Thu 05:30:04 PM 41.9603 -71.2144 283° West 398 458 32,300 1,271 Climbing Boston Center
Thu 05:31:04 PM 41.9847 -71.3703 282° West 398 458 33,600 843 Climbing Boston Center
Thu 05:32:05 PM 42.0092 -71.5208 282° West 403 464 34,000 843 Climbing Boston Center
Thu 05:33:05 PM 42.0331 -71.6853 281° West 409 471 35,300 1,300 Climbing Boston Center
Thu 05:34:05 PM 42.0569 -71.8333 282° West 409 471 36,600 942 Climbing Boston Center
Thu 05:35:06 PM 42.0806 -71.9814 282° West 409 471 37,200 645 Climbing Boston Center
Thu 05:36:06 PM 42.1039 -72.1294 282° West 409 471 37,900 610 Climbing Boston Center
Thu 05:37:04 PM 42.1253 -72.2664 282° West 409 471 38,400 559 Climbing Boston Center
Thu 05:38:04 PM 42.1503 -72.4233 282° West 414 476 39,000 545 Climbing Boston Center
Thu 05:39:05 PM 42.1731 -72.5775 281° West 414 476 39,500 496 Climbing Boston Center
Thu 05:40:05 PM 42.1958 -72.7342 281° West 424 488 40,000 248 Climbing Boston Center
Thu 05:41:06 PM 42.2181 -72.8942 281° West 429 494 40,000  Level Boston Center
Thu 05:42:06 PM 42.2425 -73.0514 282° West 429 494 40,000  Level Boston Center
Thu 05:43:04 PM 42.2664 -73.2089 282° West 429 494 40,000  Level Boston Center
Thu 05:44:04 PM 42.2947 -73.3550 285° West 423 487 40,000  Level Boston Center
Thu 05:45:04 PM 42.3161 -73.5014 281° West 411 473 40,000  Level Boston Center
Thu 05:46:05 PM 42.3356 -73.6647 279° West 411 473 40,000  Level Boston Center
Thu 05:47:05 PM 42.3442 -73.8222 274° West 425 489 40,000  Level Boston Center
Thu 05:48:03 PM 42.3442 -73.9794 270° West 425 489 40,000  Level Boston Center
Thu 05:49:04 PM 42.3419 -74.1394 269° West 420 483 40,000  Level Boston Center
Thu 05:50:05 PM 42.3436 -74.2997 271° West 420 483 40,000  Level Boston Center
Thu 05:51:05 PM 42.3447 -74.4683 271° West 420 483 40,000  Level Boston Center
Thu 05:52:04 PM 42.3458 -74.6311 271° West 425 489 40,000  Level Boston Center
Thu 05:53:05 PM 42.3489 -74.7886 272° West 425 489 40,000  Level Boston Center
Thu 05:54:06 PM 42.3686 -74.9467 280° West 425 489 40,000  Level Boston Center
Thu 05:55:06 PM 42.3964 -75.0997 284° West 425 489 40,000  Level Boston Center
Thu 05:56:04 PM 42.4239 -75.2500 284° West 425 489 40,000  Level Boston Center
Thu 05:57:05 PM 42.4492 -75.4117 282° West 425 489 40,000  Level Boston Center
Thu 05:58:06 PM 42.4739 -75.5706 282° West 430 495 40,000  Level Boston Center
Thu 05:59:03 PM 42.4989 -75.7239 283° West 430 495 40,000 -356 Level Boston Center
Thu 06:00:04 PM 42.5256 -75.8803 283° West 430 495 39,300 -1,366 Descending Boston Center
Thu 06:01:06 PM 42.5497 -76.0367 282° West 430 495 37,200 -1,981 Descending Boston Center
Thu 06:03:30 PM 42.6103 -76.4214 282° West 434 499 32,500 -1,529 Descending Cleveland Center
Thu 06:04:30 PM 42.6350 -76.5864 282° West 434 499 32,000 -250 Descending Cleveland Center
Thu 06:05:30 PM 42.6594 -76.7572 281° West 448 516 32,000  Level Cleveland Center
Thu 06:06:30 PM 42.6858 -76.9281 282° West 462 532 32,000  Level Cleveland Center
Thu 06:07:30 PM 42.7122 -77.1044 282° West 468 539 32,000  Level Cleveland Center
Thu 06:08:30 PM 42.7378 -77.2728 282° West 468 539 32,000  Level Cleveland Center
Thu 06:09:30 PM 42.7636 -77.4467 281° West 468 539 32,000  Level Cleveland Center
Thu 06:10:30 PM 42.7886 -77.6039 282° West 468 539 32,000  Level Cleveland Center
Thu 06:11:30 PM 42.8139 -77.7839 281° West 473 544 32,000 -400 Level Cleveland Center
Thu 06:12:30 PM 42.8347 -77.9586 279° West 473 544 31,200 -1,350 Descending Cleveland Center
Thu 06:13:30 PM 42.8594 -78.1361 281° West 478 550 29,300 -1,900 Descending Cleveland Center
Thu 06:14:30 PM 42.8839 -78.3078 281° West 478 550 27,400 -1,934 Descending Cleveland Center
Thu 06:15:31 PM 42.9078 -78.4714 281° West 465 535 25,400 -2,000 Descending Cleveland Center
Thu 06:16:30 PM 42.9292 -78.6267 281° West 446 513 23,400 -2,017 Descending Cleveland Center
Thu 06:17:30 PM 42.9878 -78.7553 302° West 409 471 21,400 -2,074 Descending Cleveland Center
Thu 06:18:46 PM 43.0667 -78.8833 310° West 390 449 18,700 -1,897 Descending Toronto Center
Thu 06:19:46 PM 43.1333 -79.0167 304° West 370 426 17,100 -1,500 Descending Toronto Center
Thu 06:20:46 PM 43.1833 -79.1333 300° West 370 426 15,700 -1,400 Descending Toronto Center
Thu 06:21:46 PM 43.2333 -79.2167 309° West 320 368 14,300 -1,400 Descending Toronto Center
Thu 06:22:46 PM 43.2833 -79.3167 305° West 300 345 12,900 -1,200 Descending Toronto Center
Thu 06:23:46 PM 43.3500 -79.3833 324° Northwest 290 334 11,900 -1,200 Descending Toronto Center
Thu 06:24:46 PM 43.4167 -79.4333 331° Northwest 290 334 10,500 -1,450 Descending Toronto Center
Thu 06:25:46 PM 43.4833 -79.4667 340° North 290 334 9,000 -1,250 Descending Toronto Center
Thu 06:26:46 PM 43.5667 -79.5167 337° Northwest 280 322 8,000 -1,050 Descending Toronto Center
Thu 06:27:46 PM 43.6333 -79.5333 350° North 280 322 6,900 -1,000 Descending Toronto Center
Thu 06:28:46 PM 43.7000 -79.5667 340° North 250 288 6,000 -800 Descending Toronto Center
Thu 06:29:46 PM 43.7667 -79.5833 350° North 240 276 5,300 -950 Descending Toronto Center
Thu 06:30:46 PM 43.8167 -79.5667 14° North 230 265 4,100 -1,000 Descending Toronto Center
Thu 06:31:46 PM 43.8333 -79.5000 71° East 230 265 3,300 -550 Descending Toronto Center
Thu 06:32:46 PM 43.7667 -79.5000 180° South 220 253 3,000 -650 Descending Toronto Center
Thu 06:33:46 PM 43.7333 -79.5333 216° Southwest 200 230 2,000 -950 Descending Toronto Center
Thu 06:34:46 PM 43.7000 -79.5833 227° Southwest 160 184 1,100 -700 Descending Toronto Center
Thu 06:35:46 PM 43.6833 -79.6333 245° Southwest 130 150 600 -500 Descending Toronto Center

Login

Don't have an account? Register now (free) for customized features, flight alerts, and more!